createdAt,value
2022-11-05T00:00:50.944Z,9.64
2022-11-05T00:03:36.143Z,9.59
2022-11-05T00:06:21.585Z,9.52
2022-11-05T00:09:23.502Z,9.49
2022-11-05T00:12:08.513Z,9.62
2022-11-05T00:14:53.622Z,9.59
2022-11-05T00:17:19.956Z,9.49
2022-11-05T00:19:46.301Z,9.35
2022-11-05T00:22:31.463Z,9.18
2022-11-05T00:25:16.368Z,9.16
2022-11-05T00:27:53.417Z,9.12
2022-11-05T00:30:22.917Z,9.07
2022-11-05T00:32:50.817Z,9.01
2022-11-05T00:35:22.585Z,9.00
2022-11-05T00:37:50.582Z,8.95
2022-11-05T00:40:17.395Z,8.85
2022-11-05T00:43:02.595Z,8.74
2022-11-05T00:45:30.803Z,8.74
2022-11-05T00:48:16.261Z,8.78
2022-11-05T00:50:42.820Z,8.77
2022-11-05T00:53:09.740Z,8.65
2022-11-05T00:55:38.160Z,8.67
2022-11-05T01:00:38.175Z,8.52
2022-11-05T01:03:07.987Z,8.49
2022-11-05T01:05:39.458Z,8.36
2022-11-05T01:08:05.916Z,8.44
2022-11-05T01:10:32.438Z,8.47
2022-11-05T01:12:59.178Z,8.47
2022-11-05T01:15:25.574Z,8.42
2022-11-05T01:17:52.533Z,8.23
2022-11-05T01:20:19.237Z,8.15
2022-11-05T01:22:45.662Z,8.05
2022-11-05T01:25:12.103Z,8.21
2022-11-05T01:27:38.538Z,8.09
2022-11-05T01:30:07.359Z,8.15
2022-11-05T01:32:35.451Z,8.02
2022-11-05T01:35:02.686Z,7.98
2022-11-05T01:37:29.033Z,7.99
2022-11-05T01:39:55.577Z,7.82
2022-11-05T01:42:24.175Z,7.91
2022-11-05T01:45:12.432Z,7.92
2022-11-05T01:47:44.797Z,7.91
2022-11-05T01:50:33.408Z,7.77
2022-11-05T01:53:09.834Z,7.91
2022-11-05T01:55:41.650Z,7.99
2022-11-05T01:58:11.603Z,7.98
2022-11-05T02:00:41.076Z,8.01
2022-11-05T02:03:07.663Z,8.02
2022-11-05T02:05:35.082Z,8.01
2022-11-05T02:08:02.550Z,8.03
2022-11-05T02:10:29.295Z,8.01
2022-11-05T02:12:55.726Z,7.95
2022-11-05T02:15:36.772Z,7.96
2022-11-05T02:18:24.876Z,7.91
2022-11-05T02:21:05.143Z,7.98
2022-11-05T02:23:34.344Z,7.89
2022-11-05T02:26:17.711Z,7.77
2022-11-05T02:28:59.115Z,7.79
2022-11-05T02:31:33.684Z,7.93
2022-11-05T02:34:04.917Z,8.07
2022-11-05T02:37:09.224Z,8.19
2022-11-05T02:40:13.402Z,8.34
2022-11-05T02:42:42.262Z,8.56
2022-11-05T02:45:33.019Z,8.42
2022-11-05T02:48:34.690Z,8.56
2022-11-05T02:51:23.843Z,8.59
2022-11-05T02:53:58.716Z,8.52
2022-11-05T02:56:32.604Z,8.53
2022-11-05T02:58:58.959Z,8.56
2022-11-05T03:01:25.575Z,8.30
2022-11-05T03:03:54.932Z,8.18
2022-11-05T03:06:24.228Z,8.12
2022-11-05T03:09:11.873Z,8.19
2022-11-05T03:11:46.939Z,8.05
2022-11-05T03:14:22.297Z,7.98
2022-11-05T03:17:01.495Z,7.89
2022-11-05T03:19:27.799Z,7.93
2022-11-05T03:22:05.419Z,7.93
2022-11-05T03:24:40.452Z,7.92
2022-11-05T03:27:11.279Z,7.99
2022-11-05T03:29:43.093Z,8.15
2022-11-05T03:32:12.416Z,8.26
2022-11-05T03:34:47.161Z,8.34
2022-11-05T03:37:17.813Z,8.34
2022-11-05T03:39:49.163Z,8.52
2022-11-05T03:42:18.303Z,8.40
2022-11-05T03:44:50.715Z,8.43
2022-11-05T03:47:22.621Z,8.30
2022-11-05T03:49:58.044Z,7.99
2022-11-05T03:52:29.982Z,7.85
2022-11-05T03:54:56.592Z,7.72
2022-11-05T03:57:27.699Z,7.72
2022-11-05T03:59:54.068Z,7.72
2022-11-05T04:02:23.188Z,7.61
2022-11-05T04:04:49.723Z,7.47
2022-11-05T04:07:34.640Z,7.55
2022-11-05T04:10:19.494Z,7.43
2022-11-05T04:13:04.787Z,7.60
2022-11-05T04:15:31.274Z,7.37
2022-11-05T04:17:58.942Z,7.23
2022-11-05T04:21:01.843Z,7.22
2022-11-05T04:23:46.821Z,7.22
2022-11-05T04:26:13.231Z,7.22
2022-11-05T04:29:00.503Z,7.22
2022-11-05T04:31:29.105Z,7.03
2022-11-05T04:33:55.731Z,7.02
2022-11-05T04:36:22.122Z,7.00
2022-11-05T04:38:48.521Z,7.05
2022-11-05T04:41:16.500Z,7.00
2022-11-05T04:43:44.469Z,6.95
2022-11-05T04:46:11.655Z,6.92
2022-11-05T04:48:38.151Z,6.86
2022-11-05T04:51:05.323Z,6.88
2022-11-05T04:53:31.988Z,6.84
2022-11-05T04:56:10.738Z,6.91
2022-11-05T04:58:41.713Z,6.88
2022-11-05T05:01:16.051Z,6.81
2022-11-05T05:03:42.856Z,6.65
2022-11-05T05:06:10.444Z,6.63
2022-11-05T05:08:36.960Z,6.72
2022-11-05T05:11:05.253Z,6.56
2022-11-05T05:13:31.759Z,6.52
2022-11-05T05:15:58.532Z,6.58
2022-11-05T05:18:29.010Z,6.58
2022-11-05T05:21:17.420Z,6.58
2022-11-05T05:23:44.350Z,6.52
2022-11-05T05:26:10.761Z,6.55
2022-11-05T05:28:37.124Z,6.47
2022-11-05T05:31:03.778Z,6.49
2022-11-05T05:33:30.214Z,6.37
2022-11-05T05:36:00.080Z,6.38
2022-11-05T05:38:26.461Z,6.33
2022-11-05T05:40:58.115Z,6.31
2022-11-05T05:43:25.045Z,6.24
2022-11-05T05:45:51.617Z,6.25
2022-11-05T05:48:17.983Z,6.33
2022-11-05T05:50:44.368Z,6.27
2022-11-05T05:53:10.995Z,6.25
2022-11-05T05:55:37.683Z,6.16
2022-11-05T05:58:05.368Z,6.16
2022-11-05T06:00:31.723Z,6.06
2022-11-05T06:02:58.105Z,6.09
2022-11-05T06:05:24.627Z,5.95
2022-11-05T06:07:58.084Z,5.89
2022-11-05T06:10:24.978Z,5.95
2022-11-05T06:12:51.548Z,5.87
2022-11-05T06:15:18.039Z,5.77
2022-11-05T06:17:44.981Z,5.70
2022-11-05T06:20:12.937Z,5.70
2022-11-05T06:22:39.703Z,5.72
2022-11-05T06:25:07.154Z,5.73
2022-11-05T06:27:33.791Z,5.65
2022-11-05T06:30:00.763Z,5.66
2022-11-05T06:32:27.200Z,5.63
2022-11-05T06:44:35.600Z,5.49
2022-11-05T06:47:01.987Z,5.58
2022-11-05T06:49:28.491Z,5.55
2022-11-05T06:51:55.020Z,5.58
2022-11-05T06:54:21.473Z,5.55
2022-11-05T06:56:48.069Z,5.56
2022-11-05T06:59:14.759Z,5.73
2022-11-05T07:01:41.563Z,5.67
2022-11-05T07:04:08.314Z,5.87
2022-11-05T07:06:37.087Z,6.02
2022-11-05T07:09:04.562Z,6.11
2022-11-05T07:11:31.032Z,6.17
2022-11-05T07:13:57.408Z,6.21
2022-11-05T07:16:23.931Z,6.40
2022-11-05T07:18:51.749Z,6.69
2022-11-05T07:21:19.731Z,6.84
2022-11-05T07:23:46.191Z,7.05
2022-11-05T07:26:12.647Z,7.22
2022-11-05T07:28:39.114Z,7.33
2022-11-05T07:32:42.000Z,7.84
2022-11-05T07:35:09.341Z,8.01
2022-11-05T07:37:46.584Z,8.39
2022-11-05T07:40:14.449Z,8.59
2022-11-05T07:42:45.520Z,8.63
2022-11-05T07:45:12.711Z,8.73
2022-11-05T07:47:45.844Z,8.94
2022-11-05T07:50:12.346Z,9.22
2022-11-05T07:52:38.745Z,9.38
2022-11-05T07:55:06.005Z,9.47
2022-11-05T07:57:32.318Z,8.94
2022-11-05T07:59:58.747Z,8.78
2022-11-05T08:02:25.387Z,8.85
2022-11-05T08:04:51.867Z,9.29
2022-11-05T08:07:18.218Z,9.47
2022-11-05T08:09:44.769Z,9.79
2022-11-05T08:12:11.215Z,10.28
2022-11-05T08:14:37.584Z,10.63
2022-11-05T08:17:04.049Z,10.15
2022-11-05T08:19:30.579Z,9.59
2022-11-05T08:21:56.956Z,10.08
2022-11-05T08:24:23.275Z,9.98
2022-11-05T08:26:49.622Z,9.50
2022-11-05T08:29:16.260Z,9.44
2022-11-05T08:31:42.634Z,10.08
2022-11-05T08:34:08.989Z,10.29
2022-11-05T08:36:35.830Z,9.76
2022-11-05T08:39:02.214Z,9.54
2022-11-05T08:41:28.605Z,10.17
2022-11-05T08:43:56.217Z,11.01
2022-11-05T08:46:22.801Z,11.34
2022-11-05T08:48:49.899Z,12.03
2022-11-05T08:51:16.252Z,11.76
2022-11-05T08:53:42.585Z,11.95
2022-11-05T08:56:09.005Z,12.79
2022-11-05T08:58:35.403Z,12.40
2022-11-05T09:01:05.396Z,13.09
2022-11-05T09:03:32.143Z,12.48
2022-11-05T09:05:58.605Z,12.57
2022-11-05T09:08:24.991Z,11.89
2022-11-05T09:10:51.422Z,12.37
2022-11-05T09:13:19.907Z,12.64
2022-11-05T09:15:48.622Z,13.16
2022-11-05T09:18:15.901Z,12.82
2022-11-05T09:20:42.687Z,13.54
2022-11-05T09:23:10.388Z,13.33
2022-11-05T09:25:37.440Z,13.54
2022-11-05T09:28:20.075Z,13.13
2022-11-05T09:30:49.403Z,12.41
2022-11-05T09:33:18.476Z,11.88
2022-11-05T09:35:45.605Z,12.64
2022-11-05T09:38:12.444Z,13.97
2022-11-05T09:40:47.054Z,14.35
2022-11-05T09:43:20.332Z,13.68
2022-11-05T09:45:51.250Z,13.09
2022-11-05T09:48:20.584Z,12.81
2022-11-05T09:50:47.973Z,13.00
2022-11-05T09:53:17.594Z,13.65
2022-11-05T09:55:56.803Z,13.36
2022-11-05T09:58:40.970Z,12.95
2022-11-05T10:01:14.608Z,13.91
2022-11-05T10:03:48.546Z,14.39
2022-11-05T10:06:21.591Z,14.06
2022-11-05T10:08:56.629Z,13.54
2022-11-05T10:11:33.903Z,15.18
2022-11-05T10:14:18.438Z,15.41
2022-11-05T10:17:00.061Z,13.70
2022-11-05T10:19:43.301Z,14.80
2022-11-05T10:22:13.646Z,15.31
2022-11-05T10:24:43.387Z,14.72
2022-11-05T10:27:35.349Z,14.72
2022-11-05T10:30:01.945Z,16.00
2022-11-05T10:32:33.006Z,15.49
2022-11-05T10:35:02.661Z,15.56
2022-11-05T10:37:30.665Z,16.27
2022-11-05T10:39:57.670Z,15.56
2022-11-05T10:42:48.892Z,14.56
2022-11-05T10:46:04.606Z,14.80
2022-11-05T10:49:00.466Z,15.91
2022-11-05T10:51:27.474Z,16.01
2022-11-05T10:54:01.947Z,15.15
2022-11-05T10:56:36.350Z,14.43
2022-11-05T10:59:10.924Z,14.72
2022-11-05T11:01:38.893Z,14.14
2022-11-05T11:04:10.320Z,15.53
2022-11-05T11:06:39.591Z,16.44
2022-11-05T11:09:26.327Z,14.90
2022-11-05T11:12:02.835Z,13.47
2022-11-05T11:14:29.970Z,13.93
2022-11-05T11:17:16.966Z,13.39
2022-11-05T11:19:43.611Z,14.84
2022-11-05T11:22:17.719Z,14.87
2022-11-05T11:24:48.035Z,13.97
2022-11-05T11:27:30.180Z,15.15
2022-11-05T11:30:00.174Z,15.94
2022-11-05T11:32:33.133Z,16.27
2022-11-05T11:35:01.053Z,14.35
2022-11-05T11:37:30.181Z,14.56
2022-11-05T11:40:16.152Z,14.97
2022-11-05T11:42:47.201Z,14.64
2022-11-05T11:45:27.332Z,14.62
2022-11-05T11:47:56.746Z,13.98
2022-11-05T11:50:33.356Z,13.58
2022-11-05T11:53:28.063Z,13.37
2022-11-05T11:56:21.051Z,12.93
2022-11-05T11:58:53.278Z,13.03
2022-11-05T12:01:29.980Z,12.76
2022-11-05T12:04:24.922Z,12.84
2022-11-05T12:06:56.291Z,12.55
2022-11-05T12:09:41.335Z,12.99
2022-11-05T12:12:14.811Z,12.95
2022-11-05T12:14:58.130Z,12.61
2022-11-05T12:17:43.294Z,12.57
2022-11-05T12:20:27.482Z,12.78
2022-11-05T12:23:15.699Z,12.88
2022-11-05T12:25:51.207Z,12.60
2022-11-05T12:29:12.288Z,12.63
2022-11-05T12:31:42.982Z,12.67
2022-11-05T12:34:43.741Z,12.46
2022-11-05T12:37:10.119Z,12.51
2022-11-05T12:40:02.886Z,12.37
2022-11-05T12:42:43.796Z,12.44
2022-11-05T12:45:29.613Z,12.47
2022-11-05T12:48:24.660Z,12.41
2022-11-05T12:51:20.257Z,12.61
2022-11-05T12:54:04.802Z,12.60
2022-11-05T12:56:44.133Z,12.50
2022-11-05T12:59:28.349Z,12.43
2022-11-05T13:02:08.249Z,12.41
2022-11-05T13:04:43.781Z,12.44
2022-11-05T13:07:16.520Z,12.43
2022-11-05T13:09:50.809Z,12.28
2022-11-05T13:12:20.331Z,12.38
2022-11-05T13:15:26.146Z,12.50
2022-11-05T13:18:03.692Z,12.43
2022-11-05T13:20:34.029Z,12.28
2022-11-05T13:23:20.181Z,12.46
2022-11-05T13:25:53.289Z,12.54
2022-11-05T13:28:35.263Z,12.67
2022-11-05T13:31:05.714Z,12.86
2022-11-05T13:33:36.505Z,12.54
2022-11-05T13:36:31.682Z,12.58
2022-11-05T13:39:07.132Z,12.50
2022-11-05T13:42:23.563Z,12.47
2022-11-05T13:45:26.135Z,12.48
2022-11-05T13:47:59.753Z,12.31
2022-11-05T13:50:33.345Z,12.53
2022-11-05T13:53:18.420Z,12.60
2022-11-05T13:56:09.928Z,12.31
2022-11-05T13:58:51.290Z,12.27
2022-11-05T14:01:54.105Z,12.34
2022-11-05T14:04:26.542Z,12.21
2022-11-05T14:06:54.568Z,12.09
2022-11-05T14:09:27.100Z,12.07
2022-11-05T14:11:58.149Z,12.18
2022-11-05T14:14:29.251Z,12.05
2022-11-05T14:17:07.588Z,12.07
2022-11-05T14:20:04.861Z,11.95
2022-11-05T14:22:31.235Z,11.92
2022-11-05T14:25:01.434Z,11.86
2022-11-05T14:27:36.667Z,11.81
2022-11-05T14:30:42.947Z,11.86
2022-11-05T14:33:39.099Z,11.81
2022-11-05T14:36:20.943Z,11.79
2022-11-05T14:38:50.569Z,11.79
2022-11-05T14:41:18.073Z,11.81
2022-11-05T14:43:50.260Z,11.79
2022-11-05T14:46:16.916Z,11.90
2022-11-05T14:48:49.886Z,11.83
2022-11-05T14:51:32.354Z,11.82
2022-11-05T14:54:05.942Z,11.78
2022-11-05T14:57:02.521Z,11.81
2022-11-05T14:59:28.905Z,11.66
2022-11-05T15:02:00.734Z,11.74
2022-11-05T15:04:30.537Z,11.75
2022-11-05T15:07:03.074Z,11.76
2022-11-05T15:09:36.312Z,11.63
2022-11-05T15:12:23.996Z,11.61
2022-11-05T15:14:58.092Z,11.66
2022-11-05T15:17:34.527Z,11.69
2022-11-05T15:20:10.602Z,11.68
2022-11-05T15:22:43.461Z,11.65
2022-11-05T15:25:54.782Z,11.58
2022-11-05T15:28:41.358Z,11.57
2022-11-05T15:31:14.014Z,11.48
2022-11-05T15:33:42.499Z,11.51
2022-11-05T15:36:27.878Z,11.51
2022-11-05T15:39:28.040Z,11.51
2022-11-05T15:41:42.878Z,11.48
2022-11-05T15:44:25.358Z,11.42
2022-11-05T15:47:30.070Z,11.39
2022-11-05T15:50:01.866Z,11.35
2022-11-05T15:52:36.503Z,11.38
2022-11-05T15:55:07.579Z,11.39
2022-11-05T15:57:39.314Z,11.34
2022-11-05T16:00:14.856Z,11.31
2022-11-05T16:02:41.791Z,11.30
2022-11-05T16:05:13.287Z,11.23
2022-11-05T16:07:48.063Z,11.28
2022-11-05T16:10:28.561Z,11.26
2022-11-05T16:12:55.236Z,11.23
2022-11-05T16:15:25.152Z,11.23
2022-11-05T16:17:57.683Z,11.26
2022-11-05T16:20:32.178Z,11.26
2022-11-05T16:23:02.189Z,11.20
2022-11-05T16:25:42.389Z,11.14
2022-11-05T16:28:25.649Z,11.10
2022-11-05T16:30:59.947Z,11.04
2022-11-05T16:33:32.314Z,10.97
2022-11-05T16:35:58.759Z,10.94
2022-11-05T16:38:25.227Z,10.91
2022-11-05T16:40:51.659Z,10.93
2022-11-05T16:43:25.523Z,10.87
2022-11-05T16:45:58.723Z,10.90
2022-11-05T16:48:26.123Z,10.86
2022-11-05T16:50:53.019Z,10.89
2022-11-05T16:53:19.706Z,10.81
2022-11-05T16:55:46.589Z,10.96
2022-11-05T16:58:25.515Z,10.96
2022-11-05T17:00:55.836Z,11.01
2022-11-05T17:03:22.355Z,11.06
2022-11-05T17:05:48.819Z,10.99
2022-11-05T17:08:15.610Z,11.03
2022-11-05T17:10:42.107Z,11.00
2022-11-05T17:13:13.119Z,11.10
2022-11-05T17:15:39.602Z,11.00
2022-11-05T17:18:06.215Z,11.04
2022-11-05T17:20:40.693Z,11.07
2022-11-05T17:23:13.246Z,11.03
2022-11-05T17:25:41.822Z,10.99
2022-11-05T17:28:09.158Z,10.94
2022-11-05T17:30:36.810Z,10.94
2022-11-05T17:33:03.375Z,10.91
2022-11-05T17:35:30.101Z,10.84
2022-11-05T17:37:56.947Z,10.84
2022-11-05T17:40:24.224Z,10.73
2022-11-05T17:42:51.732Z,10.80
2022-11-05T17:45:18.498Z,10.72
2022-11-05T17:47:45.431Z,10.68
2022-11-05T17:50:13.638Z,10.55
2022-11-05T17:52:40.386Z,10.55
2022-11-05T17:55:16.518Z,10.49
2022-11-05T17:57:48.102Z,10.42
2022-11-05T18:00:17.430Z,10.39
2022-11-05T18:02:44.439Z,10.33
2022-11-05T18:05:12.172Z,10.42
2022-11-05T18:07:38.539Z,10.41
2022-11-05T18:10:05.844Z,10.41
2022-11-05T18:12:32.409Z,10.35
2022-11-05T18:14:58.880Z,10.41
2022-11-05T18:17:25.404Z,10.29
2022-11-05T18:19:53.988Z,10.25
2022-11-05T18:22:20.385Z,10.31
2022-11-05T18:24:46.850Z,10.26
2022-11-05T18:27:13.367Z,10.20
2022-11-05T18:29:39.785Z,10.21
2022-11-05T18:32:06.254Z,10.14
2022-11-05T18:34:32.924Z,10.15
2022-11-05T18:36:59.393Z,10.17
2022-11-05T18:39:25.748Z,10.14
2022-11-05T18:41:52.123Z,10.10
2022-11-05T18:44:22.605Z,10.04
2022-11-05T18:46:57.965Z,10.02
2022-11-05T18:49:25.098Z,9.98
2022-11-05T18:51:51.613Z,9.98
2022-11-05T18:57:36.025Z,9.89
2022-11-05T19:00:04.720Z,9.93
2022-11-05T19:02:31.183Z,9.90
2022-11-05T19:05:27.470Z,9.91
2022-11-05T19:07:44.152Z,9.89
2022-11-05T19:10:10.601Z,9.86
2022-11-05T19:12:39.516Z,9.84
2022-11-05T19:15:06.967Z,9.89
2022-11-05T19:17:39.135Z,9.94
2022-11-05T19:20:06.968Z,9.87
2022-11-05T19:22:33.343Z,9.89
2022-11-05T19:24:59.673Z,9.86
2022-11-05T19:27:26.028Z,9.90
2022-11-05T19:29:52.629Z,9.93
2022-11-05T19:32:19.278Z,9.87
2022-11-05T19:34:46.314Z,9.77
2022-11-05T19:37:12.832Z,9.79
2022-11-05T19:39:40.395Z,9.79
2022-11-05T19:42:07.056Z,9.81
2022-11-05T19:44:33.508Z,9.84
2022-11-05T19:46:59.968Z,9.87
2022-11-05T19:49:28.143Z,9.81
2022-11-05T19:51:54.567Z,9.81
2022-11-05T19:54:21.046Z,9.73
2022-11-05T19:56:49.722Z,9.77
2022-11-05T19:59:16.124Z,9.77
2022-11-05T20:01:42.591Z,9.76
2022-11-05T20:04:09.523Z,9.70
2022-11-05T20:06:38.993Z,9.71
2022-11-05T20:09:21.611Z,9.66
2022-11-05T20:11:50.598Z,9.60
2022-11-05T20:14:17.143Z,9.59
2022-11-05T20:16:45.549Z,9.57
2022-11-05T20:19:14.827Z,9.52
2022-11-05T20:21:41.442Z,9.42
2022-11-05T20:24:08.346Z,9.43
2022-11-05T20:26:35.284Z,9.35
2022-11-05T20:29:01.847Z,9.42
2022-11-05T20:31:28.615Z,9.35
2022-11-05T20:33:55.039Z,9.39
2022-11-05T20:36:24.047Z,9.36
2022-11-05T20:38:56.462Z,9.32
2022-11-05T20:41:23.404Z,9.31
2022-11-05T20:43:50.890Z,9.29
2022-11-05T20:46:19.971Z,9.32
2022-11-05T20:48:46.685Z,9.31
2022-11-05T20:51:16.103Z,9.29
2022-11-05T20:53:44.013Z,9.19
2022-11-05T20:56:19.173Z,9.18
2022-11-05T20:58:45.997Z,9.14
2022-11-05T21:01:13.425Z,9.10
2022-11-05T21:03:39.990Z,9.15
2022-11-05T21:06:06.650Z,9.07
2022-11-05T21:08:34.091Z,9.05
2022-11-05T21:11:01.157Z,9.01
2022-11-05T21:13:28.213Z,8.98
2022-11-05T21:15:57.866Z,8.94
2022-11-05T21:18:29.476Z,8.88
2022-11-05T21:20:56.933Z,8.89
2022-11-05T21:23:23.720Z,8.95
2022-11-05T21:25:50.387Z,8.97
2022-11-05T21:28:17.252Z,9.01
2022-11-05T21:30:46.141Z,9.07
2022-11-05T21:33:14.150Z,9.10
2022-11-05T21:35:46.621Z,9.05
2022-11-05T21:38:15.477Z,9.07
2022-11-05T21:40:45.243Z,9.07
2022-11-05T21:43:13.070Z,9.04
2022-11-05T21:45:41.203Z,9.00
2022-11-05T21:48:08.899Z,8.94
2022-11-05T21:50:57.809Z,8.87
2022-11-05T21:53:42.872Z,8.85
2022-11-05T21:56:46.997Z,8.85
2022-11-05T21:59:40.508Z,8.84
2022-11-05T22:02:08.519Z,8.77
2022-11-05T22:04:37.511Z,8.71
2022-11-05T22:07:04.944Z,8.75
2022-11-05T22:09:31.878Z,8.84
2022-11-05T22:11:59.366Z,8.73
2022-11-05T22:14:26.172Z,8.81
2022-11-05T22:16:52.716Z,8.73
2022-11-05T22:19:20.219Z,8.65
2022-11-05T22:21:46.652Z,8.64
2022-11-05T22:24:13.755Z,8.64
2022-11-05T22:26:41.227Z,8.64
2022-11-05T22:29:07.928Z,8.59
2022-11-05T22:31:36.447Z,8.50
2022-11-05T22:34:04.455Z,8.52
2022-11-05T22:36:31.989Z,8.43
2022-11-05T22:38:58.718Z,8.34
2022-11-05T22:41:25.434Z,8.40
2022-11-05T22:43:52.019Z,8.32
2022-11-05T22:46:21.737Z,8.25
2022-11-05T22:48:49.255Z,8.30
2022-11-05T22:51:21.455Z,8.25
2022-11-05T22:53:48.367Z,8.22
2022-11-05T22:56:18.183Z,8.23
2022-11-05T22:58:44.847Z,8.12
2022-11-05T23:01:12.437Z,8.12
2022-11-05T23:03:40.682Z,8.12
2022-11-05T23:06:36.490Z,8.12
2022-11-05T23:09:24.951Z,8.10
2022-11-05T23:11:53.504Z,8.15
2022-11-05T23:14:20.223Z,8.06
2022-11-05T23:17:05.353Z,8.06
2022-11-05T23:19:50.306Z,8.05
2022-11-05T23:22:40.725Z,8.05
2022-11-05T23:25:09.929Z,7.99
2022-11-05T23:27:38.303Z,8.07
2022-11-05T23:30:09.478Z,7.99
2022-11-05T23:32:38.301Z,8.02
2022-11-05T23:35:05.227Z,7.95
2022-11-05T23:37:50.292Z,7.92
2022-11-05T23:40:19.714Z,7.91
2022-11-05T23:43:05.047Z,7.86
2022-11-05T23:45:51.037Z,7.91
2022-11-05T23:48:37.351Z,7.88
2022-11-05T23:51:09.194Z,7.86
2022-11-05T23:53:39.879Z,7.89
2022-11-05T23:56:12.901Z,7.79
2022-11-05T23:58:41.037Z,7.75
